Time;durP1;ratioP1;P1;durP2;ratioP2;P2;SDS_P1;SDS_P2;PMS_P1;PMS_P2;Temp;Humidity;BMP_temperature;BMP_pressure;BME280_temperature;BME280_humidity;BME280_pressure;Samples;Min_cycle;Max_cycle;Signal;HPM_P1;HPM_P2
2022/10/15 00:02:07;;;;;;;75.03;44.77;;;;;;;6.48;95.21;98862.84;2147248;83;20982;-83
2022/10/15 00:05:07;;;;;;;75.73;47.00;;;;;;;6.51;96.69;98860.34;2147224;83;20965;-84
2022/10/15 00:08:08;;;;;;;76.70;46.20;;;;;;;6.58;97.79;98859.26;2147278;83;21330;-83
2022/10/15 00:11:08;;;;;;;72.53;45.43;;;;;;;6.62;97.61;98857.63;2147475;83;20997;-83
2022/10/15 00:14:08;;;;;;;72.80;44.13;;;;;;;6.63;97.63;98858.97;2147780;83;20930;-81
2022/10/15 00:17:09;;;;;;;74.23;43.93;;;;;;;6.61;96.48;98856.75;2147733;83;21425;-81
2022/10/15 00:20:09;;;;;;;75.10;45.53;;;;;;;6.58;96.60;98859.67;2147615;83;20949;-81
2022/10/15 00:23:10;;;;;;;64.17;41.43;;;;;;;6.60;97.05;98865.78;2147611;83;21001;-81
2022/10/15 00:26:10;;;;;;;70.23;42.80;;;;;;;6.59;96.85;98857.54;2147369;83;21321;-81
2022/10/15 00:29:10;;;;;;;67.53;43.73;;;;;;;6.55;96.33;98854.41;2147396;83;21013;-81
2022/10/15 00:32:11;;;;;;;60.97;40.30;;;;;;;6.55;96.93;98850.09;2147564;83;20934;-81
2022/10/15 00:35:11;;;;;;;70.47;41.97;;;;;;;6.52;96.04;98850.01;2147307;83;20961;-83
2022/10/15 00:38:12;;;;;;;68.90;41.47;;;;;;;6.50;96.45;98850.38;2147331;83;21306;-83
2022/10/15 00:41:12;;;;;;;85.83;44.27;;;;;;;6.51;96.49;98842.19;2147647;83;21021;-83
2022/10/15 00:44:13;;;;;;;63.53;38.30;;;;;;;6.52;96.36;98846.12;2147471;83;20974;-83
2022/10/15 00:47:13;;;;;;;67.23;41.17;;;;;;;6.49;96.00;98845.16;2147643;83;20930;-83
2022/10/15 00:50:13;;;;;;;69.23;41.97;;;;;;;6.47;96.36;98846.41;2147879;83;20957;-83
2022/10/15 00:53:14;;;;;;;59.10;36.43;;;;;;;6.45;96.64;98839.42;2147881;83;20965;-84
2022/10/15 00:56:14;;;;;;;91.17;42.60;;;;;;;6.43;95.78;98842.39;2147514;83;20969;-84
2022/10/15 00:59:15;;;;;;;65.73;38.37;;;;;;;6.34;95.77;98831.34;2149156;83;21016;-82
2022/10/15 01:02:15;;;;;;;64.17;40.60;;;;;;;6.32;95.65;98832.60;2150737;82;20962;-83
2022/10/15 01:05:15;;;;;;;59.60;38.43;;;;;;;6.27;95.67;98827.70;2150419;82;21018;-84
2022/10/15 01:08:16;;;;;;;65.93;37.90;;;;;;;6.25;95.69;98825.91;2150322;82;20974;-82
2022/10/15 01:11:16;;;;;;;52.73;35.30;;;;;;;6.24;95.89;98821.55;2150254;82;20953;-83
2022/10/15 01:14:17;;;;;;;61.07;36.90;;;;;;;6.18;95.50;98819.66;2150682;82;20973;-83
2022/10/15 01:17:17;;;;;;;61.57;36.27;;;;;;;6.14;95.08;98813.93;2150747;82;21024;-83
2022/10/15 01:20:17;;;;;;;57.07;36.57;;;;;;;6.08;95.03;98811.58;2150245;82;20997;-83
2022/10/15 01:23:19;;;;;;;59.63;37.97;;;;;;;6.02;94.90;98809.24;2150556;82;21005;-84
2022/10/15 01:26:18;;;;;;;112.10;35.97;;;;;;;5.97;95.42;98804.34;2150826;82;20945;-83
2022/10/15 01:29:19;;;;;;;63.63;36.93;;;;;;;5.95;95.96;98804.72;2150354;82;21012;-81
2022/10/15 01:32:19;;;;;;;60.30;36.97;;;;;;;6.00;96.33;98803.55;2150284;82;21025;-82
2022/10/15 01:35:19;;;;;;;55.50;35.37;;;;;;;6.01;96.66;98797.53;2150371;82;20946;-81
2022/10/15 01:38:20;;;;;;;54.60;34.00;;;;;;;5.99;96.17;98797.49;2149935;82;20970;-81
2022/10/15 01:41:20;;;;;;;50.97;35.00;;;;;;;5.94;95.82;98802.08;2150481;82;20958;-81
2022/10/15 01:44:21;;;;;;;53.00;32.80;;;;;;;5.91;95.51;98798.98;2150470;82;20980;-82
2022/10/15 01:47:21;;;;;;;53.33;31.83;;;;;;;5.90;95.37;98797.22;2150584;82;20965;-81
2022/10/15 01:50:21;;;;;;;59.03;35.57;;;;;;;5.91;95.60;98798.10;2150369;82;20950;-81
2022/10/15 01:53:25;;;;;;;55.70;35.53;;;;;;;5.92;95.97;98792.09;2150354;82;20965;-82
2022/10/15 01:56:22;;;;;;;53.43;34.07;;;;;;;5.99;96.47;98797.49;2150226;82;20926;-82
2022/10/15 01:59:23;;;;;;;56.87;35.33;;;;;;;6.06;96.18;98788.18;2149968;82;21085;-82
2022/10/15 02:02:23;;;;;;;57.07;35.13;;;;;;;6.10;96.31;98791.36;2150156;82;21298;-83
2022/10/15 02:05:23;;;;;;;63.57;34.03;;;;;;;6.12;96.28;98789.69;2150033;82;20946;-82
2022/10/15 02:08:24;;;;;;;128.30;38.97;;;;;;;6.19;96.79;98787.73;2150029;82;20981;-81
2022/10/15 02:11:24;;;;;;;63.13;37.87;;;;;;;6.32;98.68;98784.64;2150253;82;20938;-82
2022/10/15 02:14:25;;;;;;;61.67;41.63;;;;;;;6.48;99.49;98779.45;2150262;82;20917;-81
2022/10/15 02:17:25;;;;;;;58.20;38.80;;;;;;;6.62;100.00;98776.80;2150006;82;21001;-82
2022/10/15 02:20:26;;;;;;;71.93;44.23;;;;;;;6.80;100.00;98778.12;2149847;82;20922;-81
2022/10/15 02:23:26;;;;;;;62.70;42.43;;;;;;;6.96;100.00;98768.20;2150149;82;20994;-82
2022/10/15 02:26:26;;;;;;;64.73;42.60;;;;;;;7.14;100.00;98772.08;2150245;82;21184;-82
2022/10/15 02:29:27;;;;;;;72.00;43.70;;;;;;;7.25;100.00;98771.91;2150199;82;20993;-82
2022/10/15 02:32:27;;;;;;;56.47;38.13;;;;;;;7.38;100.00;98766.59;2150410;82;20952;-82
2022/10/15 02:35:27;;;;;;;315.67;47.87;;;;;;;7.48;100.00;98766.83;2150364;82;20991;-82
2022/10/15 02:38:30;;;;;;;58.23;37.43;;;;;;;7.52;100.00;98768.66;2150190;82;20955;-82
2022/10/15 02:41:28;;;;;;;56.40;39.13;;;;;;;7.59;100.00;98767.95;2150211;82;20930;-82
2022/10/15 02:44:29;;;;;;;65.37;39.90;;;;;;;7.63;100.00;98760.68;2150258;82;21013;-82
2022/10/15 02:47:30;;;;;;;58.87;41.13;;;;;;;7.74;100.00;98762.21;2150169;82;20985;-82
2022/10/15 02:50:30;;;;;;;61.23;40.03;;;;;;;7.82;100.00;98762.41;2150059;82;20957;-81
2022/10/15 02:53:30;;;;;;;63.27;41.10;;;;;;;7.91;100.00;98754.81;2150158;82;20989;-82
2022/10/15 02:56:30;;;;;;;62.43;40.83;;;;;;;7.98;100.00;98751.06;2150154;82;21321;-81
2022/10/15 02:59:31;;;;;;;67.70;41.77;;;;;;;8.08;100.00;98749.53;2149939;82;21036;-83
2022/10/15 03:02:31;;;;;;;58.83;41.60;;;;;;;8.12;100.00;98741.37;2150185;82;20917;-82
2022/10/15 03:05:32;;;;;;;61.63;40.90;;;;;;;8.16;100.00;98737.98;2150317;83;21401;-81
2022/10/15 03:08:32;;;;;;;61.33;41.37;;;;;;;8.18;100.00;98731.97;2150324;82;21016;-82
2022/10/15 03:11:32;;;;;;;65.30;41.83;;;;;;;8.23;100.00;98732.93;2150279;82;20966;-82
2022/10/15 03:14:33;;;;;;;59.47;41.23;;;;;;;8.26;100.00;98734.71;2150290;82;20937;-82
2022/10/15 03:17:33;;;;;;;56.70;40.33;;;;;;;8.30;100.00;98728.72;2150005;82;21294;-83
2022/10/15 03:20:34;;;;;;;60.13;40.00;;;;;;;8.30;100.00;98730.02;2150186;82;20969;-83
2022/10/15 03:23:34;;;;;;;52.13;38.17;;;;;;;8.28;100.00;98723.48;2150241;82;21012;-84
2022/10/15 03:26:34;;;;;;;60.87;38.63;;;;;;;8.24;100.00;98724.28;2150121;82;20957;-83
2022/10/15 03:29:35;;;;;;;52.97;36.50;;;;;;;8.20;100.00;98718.56;2149758;83;21089;-83
2022/10/15 03:32:35;;;;;;;52.50;37.33;;;;;;;8.16;100.00;98712.86;2150304;82;20961;-82
2022/10/15 03:35:36;;;;;;;52.07;35.93;;;;;;;8.10;100.00;98711.44;2150038;82;21017;-83
2022/10/15 03:38:36;;;;;;;50.13;36.27;;;;;;;8.06;100.00;98708.75;2150022;83;21353;-82
2022/10/15 03:41:36;;;;;;;55.73;36.07;;;;;;;7.98;100.00;98712.50;2149946;83;20961;-81
2022/10/15 03:44:37;;;;;;;57.00;36.83;;;;;;;7.91;100.00;98712.80;2149130;82;20929;-84
2022/10/15 03:47:37;;;;;;;50.70;36.00;;;;;;;7.88;100.00;98714.03;2149958;82;21322;-83
2022/10/15 03:50:38;;;;;;;46.37;33.93;;;;;;;7.88;100.00;98715.34;2149695;82;21333;-83
2022/10/15 03:53:38;;;;;;;50.63;35.57;;;;;;;7.81;99.85;98713.88;2149904;82;20961;-82
2022/10/15 03:56:41;;;;;;;50.90;35.40;;;;;;;7.75;99.71;98717.62;2150260;83;20961;-82
2022/10/15 03:59:41;;;;;;;47.27;35.00;;;;;;;7.66;99.47;98719.18;2148408;82;21416;-84
2022/10/15 04:02:44;;;;;;;51.90;36.63;;;;;;;7.62;99.45;98715.19;2147294;83;20973;-82
2022/10/15 04:05:46;;;;;;;50.43;34.85;;;;;;;7.54;99.47;98708.53;2117994;83;20977;-81
2022/10/15 04:08:46;;;;;;;49.80;35.87;;;;;;;7.52;99.97;98713.23;2147111;83;21337;-83
2022/10/15 04:11:47;;;;;;;52.47;34.23;;;;;;;7.48;100.00;98714.89;2147205;83;20993;-80
2022/10/15 04:14:47;;;;;;;50.93;35.60;;;;;;;7.51;100.00;98712.78;2147129;83;20945;-83
2022/10/15 04:17:48;;;;;;;55.43;37.90;;;;;;;7.50;100.00;98715.80;2147491;83;20969;-83
2022/10/15 04:20:48;;;;;;;56.73;36.47;;;;;;;7.50;100.00;98710.61;2146713;83;21361;-84
2022/10/15 04:23:48;;;;;;;53.83;36.10;;;;;;;7.55;100.00;98714.17;2146140;83;20977;-83
2022/10/15 04:26:49;;;;;;;58.70;38.10;;;;;;;7.61;100.00;98713.01;2146128;83;20977;-84
2022/10/15 04:29:49;;;;;;;59.87;39.30;;;;;;;7.67;100.00;98705.34;2145511;83;20985;-82
2022/10/15 04:32:50;;;;;;;56.77;39.90;;;;;;;7.78;100.00;98705.56;2145332;83;20949;-82
2022/10/15 04:35:50;;;;;;;55.47;39.67;;;;;;;7.84;100.00;98703.13;2145341;83;21285;-81
2022/10/15 04:38:51;;;;;;;56.10;39.20;;;;;;;7.89;100.00;98697.59;2145639;83;20990;-81
2022/10/15 04:41:51;;;;;;;53.37;38.47;;;;;;;7.94;100.00;98704.19;2145752;83;20941;-82
2022/10/15 04:44:51;;;;;;;64.00;42.33;;;;;;;7.97;100.00;98698.63;2145406;83;20957;-83
2022/10/15 04:47:54;;;;;;;55.33;39.43;;;;;;;8.03;100.00;98699.17;2116648;83;20930;-82
2022/10/15 04:50:54;;;;;;;66.00;42.77;;;;;;;8.09;100.00;98694.52;2146041;83;21282;-80
2022/10/15 04:53:54;;;;;;;59.07;42.43;;;;;;;8.17;100.00;98691.21;2145902;83;20934;-82
2022/10/15 04:56:55;;;;;;;61.03;41.67;;;;;;;8.25;100.00;98690.92;2145984;83;20950;-81
2022/10/15 04:59:55;;;;;;;89.80;43.17;;;;;;;8.36;100.00;98696.78;2147411;83;21001;-79
2022/10/15 05:02:56;;;;;;;64.23;41.33;;;;;;;8.43;100.00;98696.92;2149734;82;21037;-80
2022/10/15 05:05:56;;;;;;;64.07;42.70;;;;;;;8.51;100.00;98694.45;2149490;82;20980;-81
2022/10/15 05:08:57;;;;;;;61.60;41.47;;;;;;;8.58;100.00;98687.20;2149496;82;21725;-80
2022/10/15 05:11:57;;;;;;;65.23;43.17;;;;;;;8.65;100.00;98687.77;2148481;82;20965;-80
2022/10/15 05:14:57;;;;;;;62.47;43.30;;;;;;;8.74;100.00;98681.87;2148662;82;20977;-81
2022/10/15 05:17:58;;;;;;;69.43;42.63;;;;;;;8.79;100.00;98683.70;2149277;82;21369;-81
2022/10/15 05:20:58;;;;;;;61.33;42.07;;;;;;;8.87;100.00;98685.12;2149240;82;20942;-81
2022/10/15 05:23:58;;;;;;;57.13;41.20;;;;;;;8.94;100.00;98683.06;2148515;83;21032;-82
2022/10/15 05:26:59;;;;;;;62.23;40.73;;;;;;;8.99;100.00;98691.81;2148490;82;21403;-82
2022/10/15 05:30:00;;;;;;;58.73;40.33;;;;;;;9.08;100.00;98688.05;2148524;82;20997;-82
2022/10/15 05:33:00;;;;;;;75.80;41.37;;;;;;;9.15;100.00;98691.20;2147952;83;20988;-81
2022/10/15 05:36:00;;;;;;;60.17;40.17;;;;;;;9.22;100.00;98683.05;2148288;82;20922;-82
2022/10/15 05:39:01;;;;;;;57.50;39.50;;;;;;;9.28;100.00;98677.93;2148394;83;20997;-83
2022/10/15 05:42:01;;;;;;;70.80;38.87;;;;;;;9.31;100.00;98671.89;2148680;82;20973;-81
2022/10/15 05:45:02;;;;;;;55.27;39.27;;;;;;;9.36;100.00;98675.00;2148910;82;20926;-81
2022/10/15 05:48:02;;;;;;;54.93;38.67;;;;;;;9.43;100.00;98676.84;2148788;83;20953;-81
2022/10/15 05:51:02;;;;;;;61.73;40.10;;;;;;;9.52;100.00;98676.09;2149053;82;20909;-81
2022/10/15 05:54:03;;;;;;;52.87;36.57;;;;;;;9.62;100.00;98676.69;2149127;82;21322;-81
2022/10/15 05:57:03;;;;;;;56.93;37.23;;;;;;;9.72;100.00;98676.38;2149190;82;20950;-82
2022/10/15 06:00:03;;;;;;;52.37;37.50;;;;;;;9.80;100.00;98678.65;2149558;82;21008;-81
2022/10/15 06:03:04;;;;;;;51.67;36.10;;;;;;;9.89;100.00;98689.19;2149997;82;21326;-81
2022/10/15 06:06:04;;;;;;;50.47;36.57;;;;;;;9.97;100.00;98701.02;2149737;82;21060;-82
2022/10/15 06:09:05;;;;;;;48.97;35.50;;;;;;;10.05;100.00;98698.06;2149516;82;20985;-81
2022/10/15 06:12:05;;;;;;;47.37;35.97;;;;;;;10.11;100.00;98700.31;2149704;82;21365;-81
2022/10/15 06:15:05;;;;;;;45.63;34.47;;;;;;;10.11;100.00;98705.95;2149375;82;20945;-80
2022/10/15 06:18:06;;;;;;;45.27;33.90;;;;;;;10.11;100.00;98706.83;2149640;82;21002;-82
2022/10/15 06:21:06;;;;;;;45.53;34.03;;;;;;;10.09;100.00;98707.67;2149567;82;21362;-81
2022/10/15 06:24:07;;;;;;;47.60;34.90;;;;;;;10.11;100.00;98715.96;2149248;83;20946;-80
2022/10/15 06:27:08;;;;;;;44.23;34.40;;;;;;;10.20;100.00;98709.58;2149140;83;20965;-81
2022/10/15 06:30:07;;;;;;;48.17;35.27;;;;;;;10.32;100.00;98711.88;2148717;82;21393;-81
2022/10/15 06:33:08;;;;;;;50.70;34.40;;;;;;;10.37;100.00;98708.45;2149303;82;20937;-81
2022/10/15 06:36:08;;;;;;;42.43;33.43;;;;;;;10.44;100.00;98710.73;2150097;82;20973;-82
2022/10/15 06:39:09;;;;;;;47.30;34.60;;;;;;;10.54;100.00;98711.27;2149762;82;21298;-81
2022/10/15 06:42:09;;;;;;;46.50;33.13;;;;;;;10.68;100.00;98710.97;2148946;82;20965;-81
2022/10/15 06:45:10;;;;;;;45.95;33.05;;;;;;;10.92;100.00;98710.73;2149379;82;20989;-80
2022/10/15 06:48:11;;;;;;;45.92;33.08;;;;;;;11.21;100.00;98707.04;2149348;83;21041;-81
2022/10/15 06:51:12;;;;;;;47.65;34.33;;;;;;;11.48;99.74;98701.59;2150108;82;21353;-81
2022/10/15 06:54:11;;;;;;;47.80;33.65;;;;;;;11.74;99.20;98708.70;2149566;82;21021;-82
2022/10/15 06:57:12;;;;;;;44.35;32.80;;;;;;;11.92;98.43;98712.73;2149095;82;20950;-81
2022/10/15 07:00:12;;;;;;;47.65;31.40;;;;;;;12.00;97.48;98709.72;2147812;82;21397;-79
2022/10/15 07:03:13;;;;;;;40.50;31.20;;;;;;;12.04;97.12;98715.41;2146309;83;20973;-83
2022/10/15 07:06:13;;;;;;;39.73;29.60;;;;;;;12.10;96.83;98710.20;2146349;83;20929;-82
2022/10/15 07:09:14;;;;;;;41.75;31.75;;;;;;;12.09;96.73;98714.98;2146062;83;20989;-80
2022/10/15 07:12:15;;;;;;;42.53;30.43;;;;;;;12.02;96.36;98710.60;2146186;83;21269;-81
2022/10/15 07:15:14;;;;;;;38.10;30.52;;;;;;;11.97;96.33;98711.02;2145962;83;20982;-80
2022/10/15 07:18:15;;;;;;;37.78;30.40;;;;;;;11.94;96.33;98711.00;2146196;83;20902;-82
2022/10/15 07:21:15;;;;;;;40.25;29.87;;;;;;;11.97;96.46;98714.06;2145968;83;21285;-81
2022/10/15 07:24:15;;;;;;;37.58;27.70;;;;;;;12.04;96.47;98715.41;2145922;83;20918;-81
2022/10/15 07:27:16;;;;;;;38.42;28.47;;;;;;;12.21;96.21;98715.50;2146168;83;20994;-81
2022/10/15 07:30:16;;;;;;;38.50;29.32;;;;;;;12.49;96.02;98711.20;2145752;83;21415;-80
2022/10/15 07:33:17;;;;;;;51.92;30.25;;;;;;;12.72;95.25;98710.81;2145399;83;20993;-81
2022/10/15 07:36:19;;;;;;;50.48;28.80;;;;;;;13.41;100.00;98716.09;2146974;83;20953;-81
2022/10/15 07:39:18;;;;;;;36.88;26.52;;;;;;;14.91;99.97;98709.37;2146750;83;21384;-82
2022/10/15 07:42:19;;;;;;;41.10;27.20;;;;;;;15.66;93.95;98705.23;2146125;83;20914;-81
2022/10/15 07:45:18;;;;;;;35.85;25.35;;;;;;;16.13;89.89;98704.69;2145910;83;20996;-82
2022/10/15 07:48:19;;;;;;;35.35;25.77;;;;;;;16.27;87.11;98698.79;2146313;83;20992;-81
2022/10/15 07:51:19;;;;;;;33.65;24.45;;;;;;;16.52;87.80;98705.50;2146257;83;21373;-81
2022/10/15 07:54:19;;;;;;;31.97;24.18;;;;;;;16.62;85.24;98695.69;2146223;83;20937;-81
2022/10/15 07:57:20;;;;;;;30.68;23.22;;;;;;;16.89;85.79;98698.39;2146299;83;21357;-81
2022/10/15 08:00:20;;;;;;;40.38;23.05;;;;;;;17.14;83.79;98697.09;2146559;83;21001;-81
2022/10/15 08:03:21;;;;;;;29.32;22.07;;;;;;;17.47;82.92;98694.79;2146224;83;21402;-81
2022/10/15 08:06:21;;;;;;;26.93;21.02;;;;;;;17.28;78.56;98698.63;2146581;83;20930;-81
2022/10/15 08:09:22;;;;;;;25.77;20.95;;;;;;;16.74;77.10;98693.36;2146171;83;20989;-81
2022/10/15 08:12:22;;;;;;;26.48;21.68;;;;;;;16.33;77.05;98701.34;2146916;83;20974;-81
2022/10/15 08:15:22;;;;;;;34.73;21.10;;;;;;;16.03;77.94;98701.73;2147151;83;20966;-81
2022/10/15 08:18:23;;;;;;;25.92;21.20;;;;;;;15.84;78.27;98704.59;2146825;83;21332;-80
2022/10/15 08:21:23;;;;;;;30.52;21.50;;;;;;;15.72;78.32;98707.80;2146922;83;20982;-81
2022/10/15 08:24:24;;;;;;;42.98;21.85;;;;;;;15.65;78.87;98704.37;2147033;83;21322;-80
2022/10/15 08:27:24;;;;;;;28.90;20.77;;;;;;;15.65;78.77;98712.70;2146868;83;21333;-80
2022/10/15 08:30:24;;;;;;;27.45;20.77;;;;;;;15.68;79.25;98709.59;2146431;83;21037;-81
2022/10/15 08:33:25;;;;;;;30.70;19.98;;;;;;;15.77;78.75;98708.18;2146681;83;21003;-81
2022/10/15 08:36:25;;;;;;;119.13;26.55;;;;;;;15.87;78.63;98716.40;2146606;83;20918;-81
2022/10/15 08:39:26;;;;;;;28.15;19.57;;;;;;;15.96;78.17;98712.78;2146745;83;20993;-80
2022/10/15 08:42:26;;;;;;;35.05;20.02;;;;;;;15.99;77.77;98722.41;2147105;83;21013;-80
2022/10/15 08:45:26;;;;;;;32.20;19.77;;;;;;;16.02;77.49;98719.30;2146971;83;21025;-80
2022/10/15 08:48:27;;;;;;;31.33;20.12;;;;;;;16.08;76.57;98719.66;2147323;83;20961;-79
2022/10/15 08:51:27;;;;;;;26.68;20.08;;;;;;;16.11;76.66;98720.95;2145893;83;21560;-82
2022/10/15 08:54:28;;;;;;;30.70;20.75;;;;;;;16.18;76.56;98722.61;2145906;83;21019;-81
2022/10/15 08:57:28;;;;;;;24.52;18.87;;;;;;;16.24;75.71;98725.17;2146465;83;20981;-80
2022/10/15 09:00:28;;;;;;;22.27;17.77;;;;;;;16.23;75.39;98722.98;2147001;83;21066;-80
2022/10/15 09:03:29;;;;;;;23.07;19.07;;;;;;;16.27;74.85;98724.26;2148899;82;21014;-80
2022/10/15 09:06:29;;;;;;;32.73;17.95;;;;;;;16.29;75.37;98730.38;2149531;82;20977;-81
2022/10/15 09:09:30;;;;;;;23.02;17.87;;;;;;;16.22;74.30;98725.19;2149793;82;20997;-81
2022/10/15 09:12:30;;;;;;;22.60;18.40;;;;;;;16.16;74.89;98723.08;2149669;82;20945;-81
2022/10/15 09:15:30;;;;;;;20.25;17.57;;;;;;;16.12;74.25;98725.32;2149956;82;20989;-81
2022/10/15 09:18:31;;;;;;;21.45;18.75;;;;;;;16.17;74.75;98726.14;2150268;82;21333;-82
2022/10/15 09:21:31;;;;;;;22.40;18.57;;;;;;;16.28;74.95;98727.31;2150069;82;20961;-82
2022/10/15 09:24:32;;;;;;;22.80;18.73;;;;;;;16.45;74.31;98730.59;2149126;82;20930;-81
2022/10/15 09:27:32;;;;;;;28.25;19.32;;;;;;;16.56;73.48;98723.00;2148742;82;20943;-80
2022/10/15 09:30:33;;;;;;;24.15;17.48;;;;;;;16.76;73.34;98725.83;2149199;82;20977;-81
2022/10/15 09:33:33;;;;;;;32.20;20.45;;;;;;;16.92;72.35;98726.02;2149675;82;20966;-80
2022/10/15 09:36:33;;;;;;;28.83;17.85;;;;;;;17.11;71.27;98731.88;2150003;82;20945;-81
2022/10/15 09:39:34;;;;;;;20.90;17.98;;;;;;;17.36;70.72;98721.81;2150014;82;21330;-81
2022/10/15 09:42:34;;;;;;;25.68;18.85;;;;;;;17.55;69.38;98730.27;2149978;82;20966;-80
2022/10/15 09:45:34;;;;;;;21.10;18.05;;;;;;;17.59;70.29;98728.00;2150222;82;20969;-80
2022/10/15 09:48:35;;;;;;;27.85;17.00;;;;;;;17.68;69.21;98730.51;2150306;82;20965;-80
2022/10/15 09:51:35;;;;;;;26.27;17.70;;;;;;;17.63;69.22;98729.69;2149676;82;20989;-81
2022/10/15 09:54:36;;;;;;;21.25;18.40;;;;;;;17.57;69.31;98731.98;2149345;82;21009;-80
2022/10/15 09:57:36;;;;;;;20.88;18.67;;;;;;;17.63;67.58;98731.01;2149867;82;21342;-80
2022/10/15 10:00:36;;;;;;;21.60;17.73;;;;;;;17.73;67.51;98727.33;2149233;82;20998;-80
2022/10/15 10:03:37;;;;;;;22.77;17.87;;;;;;;17.93;67.65;98730.91;2149385;82;20985;-78
2022/10/15 10:06:37;;;;;;;22.52;17.65;;;;;;;18.09;66.89;98731.03;2148884;82;20922;-79
2022/10/15 10:09:38;;;;;;;22.45;18.62;;;;;;;18.29;66.53;98730.20;2148497;82;21345;-81
2022/10/15 10:12:38;;;;;;;18.85;16.82;;;;;;;18.50;66.38;98721.39;2148886;82;20956;-81
2022/10/15 10:15:38;;;;;;;21.52;17.77;;;;;;;18.79;65.42;98715.03;2149453;82;20934;-80
2022/10/15 10:18:39;;;;;;;31.97;17.27;;;;;;;18.96;63.52;98716.82;2149643;82;21365;-82
2022/10/15 10:21:41;;;;;;;32.33;17.92;;;;;;;18.95;60.21;98715.53;2149549;82;20973;-81
2022/10/15 10:24:40;;;;;;;25.90;17.07;;;;;;;19.02;60.42;98715.35;2150025;82;21054;-81
2022/10/15 10:27:40;;;;;;;23.15;16.32;;;;;;;19.03;59.62;98718.41;2149629;82;20938;-80
2022/10/15 10:30:41;;;;;;;25.97;16.57;;;;;;;18.96;59.10;98723.44;2149123;82;21017;-81
2022/10/15 10:33:41;;;;;;;73.95;17.75;;;;;;;18.87;59.39;98720.14;2149255;82;21015;-82
2022/10/15 10:36:41;;;;;;;20.95;16.62;;;;;;;18.82;59.75;98725.53;2148395;82;21330;-80
2022/10/15 10:39:43;;;;;;;21.30;17.80;;;;;;;18.79;60.33;98720.31;2149110;82;21361;-81
2022/10/15 10:42:42;;;;;;;22.67;18.00;;;;;;;18.82;59.59;98724.21;2149717;82;20930;-80
2022/10/15 10:45:42;;;;;;;34.78;17.87;;;;;;;18.84;59.42;98722.41;2149934;82;21057;-81
2022/10/15 10:48:43;;;;;;;24.60;17.45;;;;;;;18.88;59.56;98728.03;2149196;82;21384;-80
2022/10/15 10:51:43;;;;;;;31.55;17.73;;;;;;;18.88;59.04;98724.06;2149147;82;20969;-81
2022/10/15 10:54:44;;;;;;;19.65;17.57;;;;;;;18.93;60.73;98731.89;2149694;82;21029;-81
2022/10/15 10:57:44;;;;;;;21.00;16.67;;;;;;;18.90;60.83;98728.87;2149710;82;21325;-80
2022/10/15 11:00:44;;;;;;;21.30;16.95;;;;;;;18.84;59.48;98725.50;2149209;82;21037;-81
2022/10/15 11:03:45;;;;;;;20.15;17.48;;;;;;;18.78;59.85;98726.52;2147029;83;20978;-81
2022/10/15 11:06:45;;;;;;;21.15;19.02;;;;;;;18.74;59.61;98730.13;2146747;83;20954;-80
2022/10/15 11:09:46;;;;;;;21.05;17.05;;;;;;;18.73;61.65;98727.06;2146488;83;20973;-81
2022/10/15 11:12:46;;;;;;;19.15;16.87;;;;;;;18.80;61.34;98726.47;2147393;83;21029;-81
2022/10/15 11:15:46;;;;;;;23.67;16.82;;;;;;;19.05;63.50;98732.47;2147195;83;20989;-82
2022/10/15 11:18:47;;;;;;;19.40;16.23;;;;;;;19.63;64.09;98724.91;2146803;83;20981;-84
2022/10/15 11:21:47;;;;;;;18.35;16.52;;;;;;;20.09;62.86;98718.38;2145998;83;20914;-81
2022/10/15 11:24:48;;;;;;;19.85;17.60;;;;;;;20.30;61.09;98724.38;2145759;83;20957;-81
2022/10/15 11:27:48;;;;;;;27.55;17.95;;;;;;;20.28;59.31;98719.13;2146080;83;21465;-81
2022/10/15 11:30:48;;;;;;;19.62;17.60;;;;;;;20.24;61.20;98713.96;2146155;83;21001;-82
2022/10/15 11:33:49;;;;;;;20.82;18.65;;;;;;;20.26;61.37;98709.02;2146262;83;20997;-82
2022/10/15 11:36:49;;;;;;;23.55;17.20;;;;;;;20.39;60.81;98710.89;2145874;83;20945;-81
2022/10/15 11:39:50;;;;;;;26.85;17.45;;;;;;;20.36;61.72;98703.86;2146221;83;20970;-81
2022/10/15 11:42:50;;;;;;;25.43;18.42;;;;;;;20.54;61.74;98710.88;2146414;83;20949;-82
2022/10/15 11:45:50;;;;;;;20.43;17.25;;;;;;;20.79;61.48;98709.66;2147056;83;20981;-82
2022/10/15 11:48:51;;;;;;;19.00;17.00;;;;;;;21.04;60.54;98707.13;2147505;83;20951;-84
2022/10/15 11:51:54;;;;;;;19.75;17.57;;;;;;;21.17;60.79;98696.52;2147536;83;20950;-84
2022/10/15 11:54:54;;;;;;;25.60;18.37;;;;;;;21.11;58.71;98696.72;2147631;83;20949;-83
2022/10/15 11:57:55;;;;;;;20.40;17.82;;;;;;;20.61;55.93;98696.52;2146994;83;21029;-83
2022/10/15 12:00:55;;;;;;;22.22;17.48;;;;;;;20.02;57.14;98697.81;2147827;83;21005;-82
2022/10/15 12:03:56;;;;;;;20.17;16.45;;;;;;;19.85;56.12;98692.09;2150460;82;21041;-83
2022/10/15 12:06:58;;;;;;;24.67;16.40;;;;;;;19.60;55.63;98695.41;2125673;83;20997;-82
2022/10/15 12:09:58;;;;;;;22.58;16.48;;;;;;;19.52;55.88;98694.74;2150159;82;20918;-82
2022/10/15 12:12:59;;;;;;;20.48;17.25;;;;;;;19.56;56.10;98700.37;2150126;82;20941;-82
2022/10/15 12:15:59;;;;;;;19.42;15.45;;;;;;;19.57;56.99;98699.45;2150295;82;20934;-83
2022/10/15 12:18:59;;;;;;;20.35;15.75;;;;;;;19.54;55.99;98700.86;2150566;82;20957;-83
2022/10/15 12:22:05;;;;;;;19.73;16.62;;;;;;;19.49;56.69;98702.73;2149958;82;21013;-82
2022/10/15 12:25:00;;;;;;;20.80;15.68;;;;;;;19.49;55.64;98693.92;2149463;82;21037;-82
2022/10/15 12:28:01;;;;;;;26.93;15.88;;;;;;;19.39;56.10;98691.97;2149510;82;20946;-83
2022/10/15 12:31:01;;;;;;;17.62;15.30;;;;;;;19.39;55.53;98691.97;2149462;82;21369;-81
2022/10/15 12:34:02;;;;;;;18.50;14.98;;;;;;;19.33;55.70;98692.13;2149637;82;20937;-81
2022/10/15 12:37:02;;;;;;;16.73;14.83;;;;;;;19.39;56.37;98690.64;2149726;82;20933;-82
2022/10/15 12:40:02;;;;;;;18.73;15.00;;;;;;;19.41;55.90;98689.70;2150650;82;20957;-81
2022/10/15 12:43:04;;;;;;;17.00;13.90;;;;;;;19.44;56.02;98691.39;2150939;82;21341;-82
2022/10/15 12:46:03;;;;;;;18.20;13.72;;;;;;;19.47;55.24;98686.47;2150287;82;20922;-80
2022/10/15 12:49:04;;;;;;;20.90;14.30;;;;;;;19.37;53.90;98689.36;2150355;82;20966;-81
2022/10/15 12:52:04;;;;;;;17.32;13.22;;;;;;;19.26;55.03;98686.58;2150285;82;20914;-81
2022/10/15 12:55:04;;;;;;;15.88;12.45;;;;;;;19.15;54.34;98685.98;2150241;82;20957;-80
2022/10/15 12:58:05;;;;;;;16.73;13.68;;;;;;;19.04;54.54;98685.77;2150120;82;21333;-79
2022/10/15 13:01:08;;;;;;;17.67;12.47;;;;;;;19.01;54.89;98685.84;2149494;82;21040;-81
2022/10/15 13:04:09;;;;;;;14.58;13.00;;;;;;;18.99;54.31;98687.66;2147526;83;21013;-81
2022/10/15 13:07:09;;;;;;;14.25;12.70;;;;;;;18.93;54.33;98689.13;2147201;83;20965;-81
2022/10/15 13:10:09;;;;;;;16.40;12.00;;;;;;;18.86;54.45;98692.82;2147420;83;20934;-81
2022/10/15 13:13:10;;;;;;;13.48;10.95;;;;;;;18.81;53.68;98699.13;2147502;83;20954;-80
2022/10/15 13:16:10;;;;;;;14.15;9.68;;;;;;;18.65;52.87;98691.55;2147499;83;20965;-81
2022/10/15 13:19:11;;;;;;;15.48;11.10;;;;;;;18.52;53.76;98690.06;2147510;83;20977;-82
2022/10/15 13:22:11;;;;;;;15.15;10.82;;;;;;;18.52;57.64;98690.06;2148014;83;21006;-82
2022/10/15 13:25:11;;;;;;;12.43;10.50;;;;;;;19.29;56.48;98684.72;2147929;83;20997;-80
2022/10/15 13:28:12;;;;;;;13.18;10.98;;;;;;;20.16;57.92;98688.14;2147823;83;21377;-82
2022/10/15 13:31:12;;;;;;;12.88;10.25;;;;;;;20.83;57.04;98687.47;2147571;83;21063;-81
2022/10/15 13:34:13;;;;;;;13.55;10.15;;;;;;;21.27;54.88;98682.92;2147815;83;20938;-82
2022/10/15 13:37:13;;;;;;;17.62;10.18;;;;;;;21.46;54.82;98686.27;2147662;83;21290;-81
2022/10/15 13:40:14;;;;;;;14.33;11.40;;;;;;;21.61;54.88;98686.61;2147625;83;20978;-83
2022/10/15 13:43:14;;;;;;;11.85;10.65;;;;;;;21.91;53.85;98683.81;2147882;83;20985;-82
2022/10/15 13:46:14;;;;;;;13.75;10.85;;;;;;;22.02;51.75;98681.63;2147748;83;20977;-82
2022/10/15 13:49:15;;;;;;;11.73;10.35;;;;;;;22.11;53.20;98689.29;2147713;83;20957;-81
2022/10/15 13:52:15;;;;;;;17.77;12.07;;;;;;;22.21;52.04;98685.36;2147801;83;20938;-82